sensor_id;sensor_type;location;lat;lon;timestamp;P1;durP1;ratioP1;P2;durP2;ratioP2
45676;SDS011;31390;51.186;6.830;2023-03-14T00:00:28;4.40;;;1.80;;
45676;SDS011;31390;51.186;6.830;2023-03-14T00:02:54;4.10;;;1.90;;
45676;SDS011;31390;51.186;6.830;2023-03-14T00:05:21;4.38;;;1.85;;
45676;SDS011;31390;51.186;6.830;2023-03-14T00:07:47;9.93;;;2.53;;
45676;SDS011;31390;51.186;6.830;2023-03-14T00:10:14;5.20;;;1.58;;
45676;SDS011;31390;51.186;6.830;2023-03-14T00:12:41;5.28;;;1.95;;
45676;SDS011;31390;51.186;6.830;2023-03-14T00:15:08;7.55;;;2.03;;
45676;SDS011;31390;51.186;6.830;2023-03-14T00:17:35;5.45;;;1.88;;
45676;SDS011;31390;51.186;6.830;2023-03-14T00:20:02;6.13;;;2.35;;
45676;SDS011;31390;51.186;6.830;2023-03-14T00:22:35;6.95;;;2.17;;
45676;SDS011;31390;51.186;6.830;2023-03-14T00:25:01;5.30;;;1.65;;
45676;SDS011;31390;51.186;6.830;2023-03-14T00:27:28;5.10;;;2.40;;
45676;SDS011;31390;51.186;6.830;2023-03-14T00:29:55;6.07;;;2.22;;
45676;SDS011;31390;51.186;6.830;2023-03-14T00:32:21;9.18;;;2.25;;
45676;SDS011;31390;51.186;6.830;2023-03-14T00:34:48;6.22;;;2.10;;
45676;SDS011;31390;51.186;6.830;2023-03-14T00:37:14;6.53;;;2.25;;
45676;SDS011;31390;51.186;6.830;2023-03-14T00:39:41;9.43;;;2.53;;
45676;SDS011;31390;51.186;6.830;2023-03-14T00:42:07;7.13;;;2.13;;
45676;SDS011;31390;51.186;6.830;2023-03-14T00:44:34;7.53;;;2.58;;
45676;SDS011;31390;51.186;6.830;2023-03-14T00:47:00;5.72;;;2.00;;
45676;SDS011;31390;51.186;6.830;2023-03-14T00:49:27;7.55;;;2.20;;
45676;SDS011;31390;51.186;6.830;2023-03-14T00:51:53;5.75;;;2.22;;
45676;SDS011;31390;51.186;6.830;2023-03-14T00:54:20;5.78;;;2.00;;
45676;SDS011;31390;51.186;6.830;2023-03-14T00:56:47;7.82;;;2.17;;
45676;SDS011;31390;51.186;6.830;2023-03-14T00:59:14;4.80;;;1.40;;
45676;SDS011;31390;51.186;6.830;2023-03-14T01:01:41;5.07;;;2.00;;
45676;SDS011;31390;51.186;6.830;2023-03-14T01:04:08;5.32;;;1.60;;
45676;SDS011;31390;51.186;6.830;2023-03-14T01:06:34;6.72;;;1.83;;
45676;SDS011;31390;51.186;6.830;2023-03-14T01:09:01;10.30;;;2.25;;
45676;SDS011;31390;51.186;6.830;2023-03-14T01:11:30;7.93;;;1.80;;
45676;SDS011;31390;51.186;6.830;2023-03-14T01:13:57;8.15;;;2.92;;
45676;SDS011;31390;51.186;6.830;2023-03-14T01:16:28;9.35;;;2.67;;
45676;SDS011;31390;51.186;6.830;2023-03-14T01:18:55;10.55;;;3.00;;
45676;SDS011;31390;51.186;6.830;2023-03-14T01:21:23;10.68;;;2.30;;
45676;SDS011;31390;51.186;6.830;2023-03-14T01:23:50;9.73;;;2.63;;
45676;SDS011;31390;51.186;6.830;2023-03-14T01:26:18;8.02;;;2.40;;
45676;SDS011;31390;51.186;6.830;2023-03-14T01:28:48;12.73;;;2.65;;
45676;SDS011;31390;51.186;6.830;2023-03-14T01:31:16;8.65;;;2.00;;
45676;SDS011;31390;51.186;6.830;2023-03-14T01:33:42;8.10;;;2.63;;
45676;SDS011;31390;51.186;6.830;2023-03-14T01:36:09;8.65;;;2.78;;
45676;SDS011;31390;51.186;6.830;2023-03-14T01:38:37;9.32;;;3.00;;
45676;SDS011;31390;51.186;6.830;2023-03-14T01:41:06;16.65;;;5.53;;
45676;SDS011;31390;51.186;6.830;2023-03-14T01:43:33;13.32;;;5.05;;
45676;SDS011;31390;51.186;6.830;2023-03-14T01:54:00;16.30;;;4.40;;
45676;SDS011;31390;51.186;6.830;2023-03-14T01:56:28;14.57;;;4.03;;
45676;SDS011;31390;51.186;6.830;2023-03-14T01:58:57;12.00;;;3.92;;
45676;SDS011;31390;51.186;6.830;2023-03-14T02:01:24;10.90;;;3.30;;
45676;SDS011;31390;51.186;6.830;2023-03-14T02:03:53;12.95;;;3.65;;
45676;SDS011;31390;51.186;6.830;2023-03-14T02:06:26;8.07;;;3.17;;
45676;SDS011;31390;51.186;6.830;2023-03-14T02:08:58;11.50;;;3.13;;
45676;SDS011;31390;51.186;6.830;2023-03-14T02:11:29;11.65;;;3.53;;
45676;SDS011;31390;51.186;6.830;2023-03-14T02:14:03;13.02;;;3.88;;
45676;SDS011;31390;51.186;6.830;2023-03-14T02:16:56;12.02;;;3.15;;
45676;SDS011;31390;51.186;6.830;2023-03-14T02:22:31;9.70;;;2.63;;
45676;SDS011;31390;51.186;6.830;2023-03-14T02:27:32;8.98;;;2.40;;
45676;SDS011;31390;51.186;6.830;2023-03-14T02:30:08;7.65;;;2.17;;
45676;SDS011;31390;51.186;6.830;2023-03-14T02:32:38;7.03;;;2.13;;
45676;SDS011;31390;51.186;6.830;2023-03-14T02:35:09;8.30;;;2.40;;
45676;SDS011;31390;51.186;6.830;2023-03-14T02:37:41;11.15;;;2.70;;
45676;SDS011;31390;51.186;6.830;2023-03-14T02:40:09;8.13;;;2.33;;
45676;SDS011;31390;51.186;6.830;2023-03-14T02:42:37;9.02;;;2.15;;
45676;SDS011;31390;51.186;6.830;2023-03-14T02:47:36;9.77;;;2.30;;
45676;SDS011;31390;51.186;6.830;2023-03-14T02:50:11;12.13;;;3.00;;
45676;SDS011;31390;51.186;6.830;2023-03-14T02:52:38;6.65;;;2.40;;
45676;SDS011;31390;51.186;6.830;2023-03-14T02:55:06;7.95;;;2.55;;
45676;SDS011;31390;51.186;6.830;2023-03-14T02:57:36;5.90;;;2.03;;
45676;SDS011;31390;51.186;6.830;2023-03-14T03:00:03;7.32;;;2.72;;
45676;SDS011;31390;51.186;6.830;2023-03-14T03:02:34;7.13;;;2.45;;
45676;SDS011;31390;51.186;6.830;2023-03-14T03:05:00;5.57;;;2.15;;
45676;SDS011;31390;51.186;6.830;2023-03-14T03:07:27;7.97;;;2.22;;
45676;SDS011;31390;51.186;6.830;2023-03-14T03:09:55;5.68;;;1.92;;
45676;SDS011;31390;51.186;6.830;2023-03-14T03:12:21;7.85;;;2.03;;
45676;SDS011;31390;51.186;6.830;2023-03-14T03:14:48;4.38;;;1.80;;
45676;SDS011;31390;51.186;6.830;2023-03-14T03:17:14;5.40;;;2.03;;
45676;SDS011;31390;51.186;6.830;2023-03-14T03:19:41;9.88;;;2.20;;
45676;SDS011;31390;51.186;6.830;2023-03-14T03:22:09;5.20;;;1.90;;
45676;SDS011;31390;51.186;6.830;2023-03-14T03:24:39;6.90;;;1.80;;
45676;SDS011;31390;51.186;6.830;2023-03-14T03:27:05;7.75;;;1.63;;
45676;SDS011;31390;51.186;6.830;2023-03-14T03:29:32;5.25;;;1.88;;
45676;SDS011;31390;51.186;6.830;2023-03-14T03:31:59;8.18;;;2.30;;
45676;SDS011;31390;51.186;6.830;2023-03-14T03:34:26;7.80;;;2.17;;
45676;SDS011;31390;51.186;6.830;2023-03-14T03:36:57;6.88;;;2.40;;
45676;SDS011;31390;51.186;6.830;2023-03-14T03:39:25;10.25;;;2.88;;
45676;SDS011;31390;51.186;6.830;2023-03-14T03:41:52;8.50;;;2.92;;
45676;SDS011;31390;51.186;6.830;2023-03-14T03:44:19;12.88;;;3.72;;
45676;SDS011;31390;51.186;6.830;2023-03-14T03:46:45;14.07;;;4.07;;
45676;SDS011;31390;51.186;6.830;2023-03-14T03:49:12;10.75;;;3.63;;
45676;SDS011;31390;51.186;6.830;2023-03-14T03:51:39;19.25;;;5.10;;
45676;SDS011;31390;51.186;6.830;2023-03-14T03:54:06;15.65;;;5.88;;
45676;SDS011;31390;51.186;6.830;2023-03-14T03:56:32;16.48;;;5.72;;
45676;SDS011;31390;51.186;6.830;2023-03-14T03:58:59;20.40;;;5.80;;
45676;SDS011;31390;51.186;6.830;2023-03-14T04:01:25;17.38;;;5.50;;
45676;SDS011;31390;51.186;6.830;2023-03-14T04:03:55;14.68;;;4.97;;
45676;SDS011;31390;51.186;6.830;2023-03-14T04:06:22;13.30;;;5.38;;
45676;SDS011;31390;51.186;6.830;2023-03-14T04:08:50;12.90;;;3.97;;
45676;SDS011;31390;51.186;6.830;2023-03-14T04:11:30;11.98;;;4.40;;
45676;SDS011;31390;51.186;6.830;2023-03-14T04:14:04;19.95;;;5.00;;
45676;SDS011;31390;51.186;6.830;2023-03-14T04:16:32;18.33;;;5.93;;
45676;SDS011;31390;51.186;6.830;2023-03-14T04:19:04;19.00;;;4.55;;
45676;SDS011;31390;51.186;6.830;2023-03-14T04:21:31;17.85;;;4.28;;
45676;SDS011;31390;51.186;6.830;2023-03-14T04:23:58;8.82;;;3.42;;
45676;SDS011;31390;51.186;6.830;2023-03-14T04:26:28;13.18;;;3.25;;
45676;SDS011;31390;51.186;6.830;2023-03-14T04:28:55;11.70;;;4.05;;
45676;SDS011;31390;51.186;6.830;2023-03-14T04:31:21;8.75;;;3.40;;
45676;SDS011;31390;51.186;6.830;2023-03-14T04:33:49;10.10;;;4.07;;
45676;SDS011;31390;51.186;6.830;2023-03-14T04:36:22;12.52;;;4.80;;
45676;SDS011;31390;51.186;6.830;2023-03-14T04:38:49;13.32;;;4.57;;
45676;SDS011;31390;51.186;6.830;2023-03-14T04:41:19;14.32;;;4.30;;
45676;SDS011;31390;51.186;6.830;2023-03-14T04:43:46;12.18;;;3.80;;
45676;SDS011;31390;51.186;6.830;2023-03-14T04:46:12;8.88;;;3.20;;
45676;SDS011;31390;51.186;6.830;2023-03-14T04:48:40;10.13;;;3.63;;
45676;SDS011;31390;51.186;6.830;2023-03-14T04:51:07;8.45;;;3.30;;
45676;SDS011;31390;51.186;6.830;2023-03-14T04:53:34;10.27;;;3.40;;
45676;SDS011;31390;51.186;6.830;2023-03-14T04:56:05;9.80;;;3.28;;
45676;SDS011;31390;51.186;6.830;2023-03-14T04:58:37;10.40;;;3.92;;
45676;SDS011;31390;51.186;6.830;2023-03-14T05:01:05;11.75;;;3.42;;
45676;SDS011;31390;51.186;6.830;2023-03-14T05:03:55;8.90;;;3.47;;
45676;SDS011;31390;51.186;6.830;2023-03-14T05:06:53;7.22;;;2.90;;
45676;SDS011;31390;51.186;6.830;2023-03-14T05:09:26;6.43;;;2.95;;
45676;SDS011;31390;51.186;6.830;2023-03-14T05:12:11;7.55;;;2.53;;
45676;SDS011;31390;51.186;6.830;2023-03-14T05:14:55;6.78;;;2.50;;
45676;SDS011;31390;51.186;6.830;2023-03-14T05:17:24;8.93;;;2.92;;
45676;SDS011;31390;51.186;6.830;2023-03-14T05:20:07;5.60;;;2.10;;
45676;SDS011;31390;51.186;6.830;2023-03-14T05:23:10;5.18;;;2.17;;
45676;SDS011;31390;51.186;6.830;2023-03-14T05:25:54;6.07;;;1.90;;
45676;SDS011;31390;51.186;6.830;2023-03-14T05:28:34;4.78;;;1.90;;
45676;SDS011;31390;51.186;6.830;2023-03-14T05:31:10;4.43;;;2.03;;
45676;SDS011;31390;51.186;6.830;2023-03-14T05:33:49;3.53;;;1.48;;
45676;SDS011;31390;51.186;6.830;2023-03-14T05:36:47;4.15;;;1.48;;
45676;SDS011;31390;51.186;6.830;2023-03-14T05:39:37;5.50;;;1.95;;
45676;SDS011;31390;51.186;6.830;2023-03-14T05:42:41;4.25;;;1.48;;
45676;SDS011;31390;51.186;6.830;2023-03-14T05:45:28;2.10;;;1.40;;
45676;SDS011;31390;51.186;6.830;2023-03-14T05:48:18;2.78;;;1.20;;
45676;SDS011;31390;51.186;6.830;2023-03-14T05:50:55;2.38;;;1.15;;
45676;SDS011;31390;51.186;6.830;2023-03-14T05:53:42;2.25;;;0.73;;
45676;SDS011;31390;51.186;6.830;2023-03-14T05:56:32;5.03;;;1.80;;
45676;SDS011;31390;51.186;6.830;2023-03-14T05:59:16;2.30;;;0.90;;
45676;SDS011;31390;51.186;6.830;2023-03-14T06:02:02;3.15;;;1.17;;
45676;SDS011;31390;51.186;6.830;2023-03-14T06:04:38;1.80;;;0.98;;
45676;SDS011;31390;51.186;6.830;2023-03-14T06:07:04;2.33;;;0.80;;
45676;SDS011;31390;51.186;6.830;2023-03-14T06:09:31;2.20;;;0.95;;
45676;SDS011;31390;51.186;6.830;2023-03-14T06:12:00;1.42;;;0.98;;
45676;SDS011;31390;51.186;6.830;2023-03-14T06:14:31;1.35;;;0.80;;
45676;SDS011;31390;51.186;6.830;2023-03-14T06:16:58;1.27;;;0.80;;
45676;SDS011;31390;51.186;6.830;2023-03-14T06:19:34;1.10;;;0.80;;
45676;SDS011;31390;51.186;6.830;2023-03-14T06:22:01;1.40;;;0.73;;
45676;SDS011;31390;51.186;6.830;2023-03-14T06:24:28;1.48;;;0.63;;
45676;SDS011;31390;51.186;6.830;2023-03-14T06:26:54;0.60;;;0.60;;
45676;SDS011;31390;51.186;6.830;2023-03-14T06:29:21;2.05;;;0.80;;
45676;SDS011;31390;51.186;6.830;2023-03-14T06:31:47;2.58;;;0.77;;
45676;SDS011;31390;51.186;6.830;2023-03-14T06:34:16;1.63;;;0.75;;
45676;SDS011;31390;51.186;6.830;2023-03-14T06:36:42;1.13;;;0.50;;
45676;SDS011;31390;51.186;6.830;2023-03-14T06:39:09;1.77;;;0.70;;
45676;SDS011;31390;51.186;6.830;2023-03-14T06:41:40;0.68;;;0.50;;
45676;SDS011;31390;51.186;6.830;2023-03-14T06:44:08;1.65;;;0.85;;
45676;SDS011;31390;51.186;6.830;2023-03-14T06:46:34;0.70;;;0.50;;
45676;SDS011;31390;51.186;6.830;2023-03-14T06:49:01;0.70;;;0.30;;
45676;SDS011;31390;51.186;6.830;2023-03-14T06:51:28;1.42;;;0.45;;
45676;SDS011;31390;51.186;6.830;2023-03-14T06:53:54;0.82;;;0.40;;
45676;SDS011;31390;51.186;6.830;2023-03-14T06:56:24;1.20;;;0.50;;
45676;SDS011;31390;51.186;6.830;2023-03-14T06:58:52;0.40;;;0.40;;
45676;SDS011;31390;51.186;6.830;2023-03-14T07:01:22;1.10;;;0.40;;
45676;SDS011;31390;51.186;6.830;2023-03-14T07:03:50;0.98;;;0.43;;
45676;SDS011;31390;51.186;6.830;2023-03-14T07:06:17;0.80;;;0.45;;
45676;SDS011;31390;51.186;6.830;2023-03-14T07:08:44;1.17;;;0.60;;
45676;SDS011;31390;51.186;6.830;2023-03-14T07:11:10;0.98;;;0.50;;
45676;SDS011;31390;51.186;6.830;2023-03-14T07:13:38;1.02;;;0.70;;
45676;SDS011;31390;51.186;6.830;2023-03-14T07:16:06;1.27;;;0.50;;
45676;SDS011;31390;51.186;6.830;2023-03-14T07:18:35;2.70;;;0.90;;
45676;SDS011;31390;51.186;6.830;2023-03-14T07:21:04;2.42;;;0.90;;
45676;SDS011;31390;51.186;6.830;2023-03-14T07:23:32;1.52;;;0.77;;
45676;SDS011;31390;51.186;6.830;2023-03-14T07:26:00;2.28;;;0.95;;
45676;SDS011;31390;51.186;6.830;2023-03-14T07:28:26;1.33;;;0.65;;
45676;SDS011;31390;51.186;6.830;2023-03-14T07:31:02;1.10;;;1.00;;
45676;SDS011;31390;51.186;6.830;2023-03-14T07:33:30;1.85;;;1.00;;
45676;SDS011;31390;51.186;6.830;2023-03-14T07:35:57;1.35;;;1.20;;
45676;SDS011;31390;51.186;6.830;2023-03-14T07:38:24;2.72;;;1.30;;
45676;SDS011;31390;51.186;6.830;2023-03-14T07:41:12;1.27;;;0.90;;
45676;SDS011;31390;51.186;6.830;2023-03-14T07:43:57;2.47;;;1.08;;
45676;SDS011;31390;51.186;6.830;2023-03-14T07:46:24;1.75;;;1.00;;
45676;SDS011;31390;51.186;6.830;2023-03-14T07:48:50;2.22;;;0.90;;
45676;SDS011;31390;51.186;6.830;2023-03-14T07:51:17;2.25;;;1.00;;
45676;SDS011;31390;51.186;6.830;2023-03-14T07:53:44;0.93;;;0.85;;
45676;SDS011;31390;51.186;6.830;2023-03-14T07:56:11;1.05;;;0.70;;
45676;SDS011;31390;51.186;6.830;2023-03-14T07:58:39;0.80;;;0.75;;
45676;SDS011;31390;51.186;6.830;2023-03-14T08:01:06;1.50;;;0.90;;
45676;SDS011;31390;51.186;6.830;2023-03-14T08:03:34;1.45;;;0.80;;
45676;SDS011;31390;51.186;6.830;2023-03-14T08:06:01;0.65;;;0.65;;
45676;SDS011;31390;51.186;6.830;2023-03-14T08:08:27;2.22;;;0.73;;
45676;SDS011;31390;51.186;6.830;2023-03-14T08:10:54;1.45;;;1.02;;
45676;SDS011;31390;51.186;6.830;2023-03-14T08:13:20;2.08;;;0.80;;
45676;SDS011;31390;51.186;6.830;2023-03-14T08:15:48;0.75;;;0.70;;
45676;SDS011;31390;51.186;6.830;2023-03-14T08:18:14;0.82;;;0.60;;
45676;SDS011;31390;51.186;6.830;2023-03-14T08:20:41;0.57;;;0.55;;
45676;SDS011;31390;51.186;6.830;2023-03-14T08:23:08;1.38;;;1.10;;
45676;SDS011;31390;51.186;6.830;2023-03-14T08:25:34;0.80;;;0.80;;
45676;SDS011;31390;51.186;6.830;2023-03-14T08:28:01;1.58;;;0.80;;
45676;SDS011;31390;51.186;6.830;2023-03-14T08:30:28;0.90;;;0.90;;
45676;SDS011;31390;51.186;6.830;2023-03-14T08:32:58;7.13;;;1.15;;
45676;SDS011;31390;51.186;6.830;2023-03-14T08:35:25;1.00;;;0.80;;
45676;SDS011;31390;51.186;6.830;2023-03-14T08:37:52;1.25;;;0.90;;
45676;SDS011;31390;51.186;6.830;2023-03-14T08:40:19;1.00;;;0.95;;
45676;SDS011;31390;51.186;6.830;2023-03-14T08:42:45;2.15;;;1.63;;
45676;SDS011;31390;51.186;6.830;2023-03-14T08:45:13;3.92;;;2.50;;
45676;SDS011;31390;51.186;6.830;2023-03-14T08:47:39;7.28;;;6.57;;
45676;SDS011;31390;51.186;6.830;2023-03-14T08:50:06;10.43;;;9.23;;
45676;SDS011;31390;51.186;6.830;2023-03-14T08:52:33;6.53;;;5.35;;
45676;SDS011;31390;51.186;6.830;2023-03-14T08:54:59;5.60;;;4.18;;
45676;SDS011;31390;51.186;6.830;2023-03-14T08:57:26;4.68;;;3.25;;
45676;SDS011;31390;51.186;6.830;2023-03-14T08:59:56;2.28;;;1.98;;
45676;SDS011;31390;51.186;6.830;2023-03-14T09:02:23;3.92;;;1.73;;
45676;SDS011;31390;51.186;6.830;2023-03-14T09:04:50;3.33;;;1.50;;
45676;SDS011;31390;51.186;6.830;2023-03-14T09:07:17;1.70;;;1.48;;
45676;SDS011;31390;51.186;6.830;2023-03-14T09:09:43;1.85;;;1.58;;
45676;SDS011;31390;51.186;6.830;2023-03-14T09:12:10;3.63;;;1.80;;
45676;SDS011;31390;51.186;6.830;2023-03-14T09:14:37;2.13;;;1.33;;
45676;SDS011;31390;51.186;6.830;2023-03-14T09:17:03;1.52;;;1.02;;
45676;SDS011;31390;51.186;6.830;2023-03-14T09:19:30;1.35;;;0.90;;
45676;SDS011;31390;51.186;6.830;2023-03-14T09:21:57;1.13;;;0.90;;
45676;SDS011;31390;51.186;6.830;2023-03-14T09:24:23;2.33;;;1.20;;
45676;SDS011;31390;51.186;6.830;2023-03-14T09:26:50;2.88;;;1.50;;
45676;SDS011;31390;51.186;6.830;2023-03-14T09:29:16;2.55;;;0.73;;
45676;SDS011;31390;51.186;6.830;2023-03-14T09:31:43;2.50;;;1.00;;
45676;SDS011;31390;51.186;6.830;2023-03-14T09:34:09;0.90;;;0.52;;
45676;SDS011;31390;51.186;6.830;2023-03-14T09:36:36;2.03;;;0.60;;
45676;SDS011;31390;51.186;6.830;2023-03-14T09:39:04;0.50;;;0.32;;
45676;SDS011;31390;51.186;6.830;2023-03-14T09:46:30;1.35;;;0.57;;
45676;SDS011;31390;51.186;6.830;2023-03-14T09:48:58;1.83;;;0.60;;
45676;SDS011;31390;51.186;6.830;2023-03-14T09:51:25;2.15;;;0.50;;
45676;SDS011;31390;51.186;6.830;2023-03-14T09:53:52;2.05;;;1.13;;
45676;SDS011;31390;51.186;6.830;2023-03-14T09:56:29;2.88;;;1.30;;
45676;SDS011;31390;51.186;6.830;2023-03-14T09:58:58;1.10;;;1.00;;
45676;SDS011;31390;51.186;6.830;2023-03-14T10:01:30;3.17;;;1.20;;
45676;SDS011;31390;51.186;6.830;2023-03-14T10:04:10;1.35;;;1.13;;
45676;SDS011;31390;51.186;6.830;2023-03-14T10:06:39;1.42;;;1.33;;
45676;SDS011;31390;51.186;6.830;2023-03-14T10:09:08;1.98;;;1.20;;
45676;SDS011;31390;51.186;6.830;2023-03-14T10:11:34;1.98;;;1.27;;
45676;SDS011;31390;51.186;6.830;2023-03-14T10:16:28;2.03;;;1.15;;
45676;SDS011;31390;51.186;6.830;2023-03-14T10:19:00;1.23;;;1.05;;
45676;SDS011;31390;51.186;6.830;2023-03-14T10:21:27;1.95;;;1.27;;
45676;SDS011;31390;51.186;6.830;2023-03-14T10:23:55;1.63;;;1.50;;
45676;SDS011;31390;51.186;6.830;2023-03-14T10:26:33;1.30;;;1.20;;
45676;SDS011;31390;51.186;6.830;2023-03-14T10:29:02;2.60;;;1.48;;
45676;SDS011;31390;51.186;6.830;2023-03-14T10:31:28;2.30;;;1.60;;
45676;SDS011;31390;51.186;6.830;2023-03-14T10:34:14;1.77;;;1.38;;
45676;SDS011;31390;51.186;6.830;2023-03-14T10:36:41;3.08;;;1.63;;
45676;SDS011;31390;51.186;6.830;2023-03-14T10:41:47;1.48;;;1.30;;
45676;SDS011;31390;51.186;6.830;2023-03-14T10:44:14;2.83;;;1.50;;
45676;SDS011;31390;51.186;6.830;2023-03-14T10:46:41;1.80;;;1.70;;
45676;SDS011;31390;51.186;6.830;2023-03-14T10:49:37;1.80;;;1.70;;
45676;SDS011;31390;51.186;6.830;2023-03-14T10:54:39;2.13;;;1.77;;
45676;SDS011;31390;51.186;6.830;2023-03-14T10:57:06;4.22;;;2.25;;
45676;SDS011;31390;51.186;6.830;2023-03-14T10:59:37;3.90;;;2.90;;
45676;SDS011;31390;51.186;6.830;2023-03-14T11:02:12;5.35;;;3.20;;
45676;SDS011;31390;51.186;6.830;2023-03-14T11:07:10;5.63;;;2.75;;
45676;SDS011;31390;51.186;6.830;2023-03-14T11:09:42;5.25;;;3.25;;
45676;SDS011;31390;51.186;6.830;2023-03-14T11:12:18;3.38;;;2.22;;
45676;SDS011;31390;51.186;6.830;2023-03-14T11:14:48;8.13;;;2.08;;
45676;SDS011;31390;51.186;6.830;2023-03-14T11:17:18;2.65;;;1.65;;
45676;SDS011;31390;51.186;6.830;2023-03-14T11:22:21;4.18;;;2.03;;
45676;SDS011;31390;51.186;6.830;2023-03-14T11:27:23;3.13;;;2.10;;
45676;SDS011;31390;51.186;6.830;2023-03-14T11:34:59;8.45;;;3.38;;
45676;SDS011;31390;51.186;6.830;2023-03-14T11:37:32;5.72;;;2.72;;
45676;SDS011;31390;51.186;6.830;2023-03-14T11:40:19;3.53;;;2.75;;
45676;SDS011;31390;51.186;6.830;2023-03-14T11:42:47;5.68;;;3.30;;
45676;SDS011;31390;51.186;6.830;2023-03-14T11:45:20;5.82;;;3.28;;
45676;SDS011;31390;51.186;6.830;2023-03-14T11:47:52;4.32;;;3.10;;
45676;SDS011;31390;51.186;6.830;2023-03-14T11:50:21;5.85;;;2.67;;
45676;SDS011;31390;51.186;6.830;2023-03-14T11:52:53;4.13;;;2.30;;
45676;SDS011;31390;51.186;6.830;2023-03-14T11:55:25;6.38;;;2.63;;
45676;SDS011;31390;51.186;6.830;2023-03-14T11:57:55;2.53;;;2.03;;
45676;SDS011;31390;51.186;6.830;2023-03-14T12:00:23;4.90;;;2.40;;
45676;SDS011;31390;51.186;6.830;2023-03-14T12:10:22;4.97;;;2.20;;
45676;SDS011;31390;51.186;6.830;2023-03-14T12:12:49;5.10;;;1.80;;
45676;SDS011;31390;51.186;6.830;2023-03-14T12:15:19;3.63;;;1.25;;
45676;SDS011;31390;51.186;6.830;2023-03-14T12:17:47;3.63;;;1.63;;
45676;SDS011;31390;51.186;6.830;2023-03-14T12:20:23;4.25;;;1.85;;
45676;SDS011;31390;51.186;6.830;2023-03-14T12:22:52;4.53;;;1.90;;
45676;SDS011;31390;51.186;6.830;2023-03-14T12:25:23;4.03;;;2.13;;
45676;SDS011;31390;51.186;6.830;2023-03-14T12:32:47;6.25;;;2.25;;
45676;SDS011;31390;51.186;6.830;2023-03-14T12:35:43;3.28;;;1.70;;
45676;SDS011;31390;51.186;6.830;2023-03-14T12:38:14;6.03;;;2.00;;
45676;SDS011;31390;51.186;6.830;2023-03-14T12:40:49;3.28;;;1.90;;
45676;SDS011;31390;51.186;6.830;2023-03-14T12:43:25;6.90;;;2.28;;
45676;SDS011;31390;51.186;6.830;2023-03-14T12:48:38;8.43;;;2.30;;
45676;SDS011;31390;51.186;6.830;2023-03-14T12:51:12;5.75;;;2.38;;
45676;SDS011;31390;51.186;6.830;2023-03-14T12:53:50;4.78;;;1.85;;
45676;SDS011;31390;51.186;6.830;2023-03-14T12:58:54;5.22;;;1.90;;
45676;SDS011;31390;51.186;6.830;2023-03-14T13:01:24;7.75;;;1.88;;
45676;SDS011;31390;51.186;6.830;2023-03-14T13:03:51;7.50;;;2.13;;
45676;SDS011;31390;51.186;6.830;2023-03-14T13:11:55;2.75;;;1.08;;
45676;SDS011;31390;51.186;6.830;2023-03-14T13:14:23;3.10;;;1.10;;
45676;SDS011;31390;51.186;6.830;2023-03-14T13:16:49;4.82;;;1.38;;
45676;SDS011;31390;51.186;6.830;2023-03-14T13:19:20;6.82;;;1.98;;
45676;SDS011;31390;51.186;6.830;2023-03-14T13:21:48;6.72;;;1.85;;
45676;SDS011;31390;51.186;6.830;2023-03-14T13:24:21;10.63;;;2.42;;
45676;SDS011;31390;51.186;6.830;2023-03-14T13:26:48;8.20;;;2.83;;
45676;SDS011;31390;51.186;6.830;2023-03-14T13:29:22;13.02;;;3.55;;
45676;SDS011;31390;51.186;6.830;2023-03-14T13:31:50;13.77;;;3.17;;
45676;SDS011;31390;51.186;6.830;2023-03-14T13:34:17;16.13;;;3.55;;
45676;SDS011;31390;51.186;6.830;2023-03-14T13:36:44;12.10;;;3.40;;
45676;SDS011;31390;51.186;6.830;2023-03-14T13:39:16;15.30;;;3.78;;
45676;SDS011;31390;51.186;6.830;2023-03-14T13:41:45;17.10;;;4.18;;
45676;SDS011;31390;51.186;6.830;2023-03-14T13:44:16;15.73;;;4.07;;
45676;SDS011;31390;51.186;6.830;2023-03-14T13:46:43;18.23;;;4.85;;
45676;SDS011;31390;51.186;6.830;2023-03-14T13:49:11;11.07;;;3.45;;
45676;SDS011;31390;51.186;6.830;2023-03-14T13:51:39;15.43;;;3.67;;
45676;SDS011;31390;51.186;6.830;2023-03-14T13:54:19;17.38;;;2.92;;
45676;SDS011;31390;51.186;6.830;2023-03-14T13:56:46;10.27;;;3.30;;
45676;SDS011;31390;51.186;6.830;2023-03-14T13:59:23;15.35;;;3.97;;
45676;SDS011;31390;51.186;6.830;2023-03-14T14:01:50;18.58;;;4.05;;
45676;SDS011;31390;51.186;6.830;2023-03-14T14:04:18;10.73;;;3.50;;
45676;SDS011;31390;51.186;6.830;2023-03-14T14:06:46;19.08;;;4.20;;
45676;SDS011;31390;51.186;6.830;2023-03-14T14:09:18;13.87;;;4.57;;
45676;SDS011;31390;51.186;6.830;2023-03-14T14:14:54;13.32;;;4.68;;
45676;SDS011;31390;51.186;6.830;2023-03-14T14:17:26;24.00;;;5.60;;
45676;SDS011;31390;51.186;6.830;2023-03-14T14:19:54;20.02;;;5.13;;
45676;SDS011;31390;51.186;6.830;2023-03-14T14:22:22;14.87;;;4.87;;
45676;SDS011;31390;51.186;6.830;2023-03-14T14:24:49;21.42;;;6.43;;
45676;SDS011;31390;51.186;6.830;2023-03-14T14:27:28;19.73;;;5.38;;
45676;SDS011;31390;51.186;6.830;2023-03-14T14:30:42;15.00;;;5.10;;
45676;SDS011;31390;51.186;6.830;2023-03-14T14:32:45;20.27;;;5.20;;
45676;SDS011;31390;51.186;6.830;2023-03-14T14:35:24;23.30;;;5.90;;
45676;SDS011;31390;51.186;6.830;2023-03-14T14:37:51;17.17;;;5.03;;
45676;SDS011;31390;51.186;6.830;2023-03-14T14:40:19;14.17;;;4.73;;
45676;SDS011;31390;51.186;6.830;2023-03-14T14:42:46;17.77;;;4.43;;
45676;SDS011;31390;51.186;6.830;2023-03-14T14:45:14;17.33;;;5.53;;
45676;SDS011;31390;51.186;6.830;2023-03-14T14:47:49;13.40;;;4.50;;
45676;SDS011;31390;51.186;6.830;2023-03-14T14:50:20;12.07;;;3.95;;
45676;SDS011;31390;51.186;6.830;2023-03-14T14:52:47;11.70;;;4.03;;
45676;SDS011;31390;51.186;6.830;2023-03-14T14:55:18;12.73;;;3.43;;
45676;SDS011;31390;51.186;6.830;2023-03-14T14:57:49;10.18;;;2.92;;
45676;SDS011;31390;51.186;6.830;2023-03-14T15:02:47;5.72;;;2.28;;
45676;SDS011;31390;51.186;6.830;2023-03-14T15:05:15;7.67;;;2.50;;
45676;SDS011;31390;51.186;6.830;2023-03-14T15:07:42;8.73;;;2.70;;
45676;SDS011;31390;51.186;6.830;2023-03-14T15:10:10;11.23;;;2.70;;
45676;SDS011;31390;51.186;6.830;2023-03-14T15:12:36;7.17;;;2.20;;
45676;SDS011;31390;51.186;6.830;2023-03-14T15:15:03;7.70;;;2.65;;
45676;SDS011;31390;51.186;6.830;2023-03-14T15:17:31;8.95;;;2.60;;
45676;SDS011;31390;51.186;6.830;2023-03-14T15:19:58;8.35;;;2.30;;
45676;SDS011;31390;51.186;6.830;2023-03-14T15:22:24;11.15;;;3.03;;
45676;SDS011;31390;51.186;6.830;2023-03-14T15:24:51;7.97;;;2.83;;
45676;SDS011;31390;51.186;6.830;2023-03-14T15:27:18;9.43;;;2.35;;
45676;SDS011;31390;51.186;6.830;2023-03-14T15:29:44;9.70;;;2.70;;
45676;SDS011;31390;51.186;6.830;2023-03-14T15:32:11;7.90;;;2.60;;
45676;SDS011;31390;51.186;6.830;2023-03-14T15:34:38;9.45;;;2.58;;
45676;SDS011;31390;51.186;6.830;2023-03-14T15:37:05;9.07;;;2.30;;
45676;SDS011;31390;51.186;6.830;2023-03-14T15:39:34;6.90;;;2.42;;
45676;SDS011;31390;51.186;6.830;2023-03-14T15:42:01;7.50;;;2.33;;
45676;SDS011;31390;51.186;6.830;2023-03-14T15:44:28;6.55;;;2.10;;
45676;SDS011;31390;51.186;6.830;2023-03-14T15:46:54;7.67;;;2.07;;
45676;SDS011;31390;51.186;6.830;2023-03-14T15:49:21;9.57;;;2.67;;
45676;SDS011;31390;51.186;6.830;2023-03-14T15:51:47;8.50;;;2.50;;
45676;SDS011;31390;51.186;6.830;2023-03-14T15:54:15;8.37;;;2.70;;
45676;SDS011;31390;51.186;6.830;2023-03-14T15:56:41;7.00;;;2.40;;
45676;SDS011;31390;51.186;6.830;2023-03-14T15:59:08;9.67;;;3.10;;
45676;SDS011;31390;51.186;6.830;2023-03-14T16:01:34;7.30;;;2.13;;
45676;SDS011;31390;51.186;6.830;2023-03-14T16:04:01;10.80;;;2.37;;
45676;SDS011;31390;51.186;6.830;2023-03-14T16:06:28;6.07;;;2.27;;
45676;SDS011;31390;51.186;6.830;2023-03-14T16:08:56;5.63;;;1.97;;
45676;SDS011;31390;51.186;6.830;2023-03-14T16:11:23;8.23;;;2.58;;